Time;durP1;ratioP1;P1;durP2;ratioP2;P2;SDS_P1;SDS_P2;PMS_P1;PMS_P2;Temp;Humidity;BMP_temperature;BMP_pressure;BME280_temperature;BME280_humidity;BME280_pressure;Samples;Min_cycle;Max_cycle;Signal;HPM_P1;HPM_P2
2021/08/22 00:00:13;;;;;;;15.45;12.05;;;;;;;12.56;72.53;97575.38;1681975;85;25446;-86
2021/08/22 00:02:41;;;;;;;14.20;12.10;;;;;;;12.55;72.64;97578.64;1700242;83;26153;-86
2021/08/22 00:05:09;;;;;;;16.00;12.68;;;;;;;12.50;72.77;97573.05;1689061;83;25741;-86
2021/08/22 00:07:35;;;;;;;16.25;12.37;;;;;;;12.50;72.90;97574.92;1679270;83;25495;-85
2021/08/22 00:10:05;;;;;;;16.62;12.98;;;;;;;12.51;72.84;97572.00;1647800;85;25738;-86
2021/08/22 00:12:32;;;;;;;16.23;12.07;;;;;;;12.52;72.85;97568.24;1689366;83;25462;-86
2021/08/22 00:15:00;;;;;;;15.45;13.22;;;;;;;12.54;72.88;97567.50;1666184;84;26920;-87
2021/08/22 00:17:27;;;;;;;15.40;13.05;;;;;;;12.53;72.88;97568.55;1659495;85;25918;-86
2021/08/22 00:19:53;;;;;;;14.58;11.75;;;;;;;12.51;72.91;97565.23;1673137;84;26083;-86
2021/08/22 00:22:24;;;;;;;13.85;12.25;;;;;;;12.52;72.93;97566.89;1629809;86;25493;-86
2021/08/22 00:24:52;;;;;;;20.55;12.25;;;;;;;12.52;72.92;97562.83;1656800;85;25517;-86
2021/08/22 00:27:19;;;;;;;16.20;13.65;;;;;;;12.51;72.91;97558.45;1670627;84;27379;-87
2021/08/22 00:29:45;;;;;;;16.17;12.73;;;;;;;12.49;72.86;97561.08;1660109;84;25559;-87
2021/08/22 00:32:12;;;;;;;14.73;11.68;;;;;;;12.43;72.83;97564.16;1671785;85;25587;-87
2021/08/22 00:34:39;;;;;;;14.07;11.63;;;;;;;12.36;72.89;97557.11;1674251;85;25652;-86
2021/08/22 00:37:08;;;;;;;13.43;10.60;;;;;;;12.32;73.03;97563.47;1663785;84;25562;-87
2021/08/22 00:39:35;;;;;;;13.98;10.98;;;;;;;12.25;73.03;97558.12;1678380;84;27371;-87
2021/08/22 00:42:02;;;;;;;18.90;11.33;;;;;;;12.20;73.00;97557.09;1653621;84;25572;-87
2021/08/22 00:44:30;;;;;;;14.87;10.98;;;;;;;12.14;73.16;97562.87;1654378;85;25386;-87
2021/08/22 00:46:57;;;;;;;12.15;10.75;;;;;;;12.15;73.33;97552.88;1655361;84;25663;-86
2021/08/22 00:49:31;;;;;;;14.65;11.33;;;;;;;12.16;73.41;97552.66;1654512;85;25518;-87
2021/08/22 00:51:59;;;;;;;12.68;10.50;;;;;;;12.16;73.42;97552.66;1655161;84;27432;-86
2021/08/22 00:54:26;;;;;;;12.28;10.05;;;;;;;12.02;73.35;97531.31;1645670;84;25589;-87
2021/08/22 00:56:53;;;;;;;15.13;11.10;;;;;;;12.18;73.47;97545.69;1663642;84;25513;-87
2021/08/22 00:59:22;;;;;;;14.78;10.68;;;;;;;12.19;73.52;97543.29;1663114;84;25571;-87
2021/08/22 01:01:53;;;;;;;16.23;10.82;;;;;;;12.20;73.57;97547.10;1649960;85;25685;-87
2021/08/22 01:04:34;;;;;;;17.32;10.93;;;;;;;12.21;73.64;97549.28;1653872;85;27820;-87
2021/08/22 01:07:18;;;;;;;12.50;10.48;;;;;;;12.23;73.75;97552.61;1626693;86;25998;-87
2021/08/22 01:09:48;;;;;;;13.30;10.68;;;;;;;12.24;73.80;97550.21;1655145;85;25561;-87
2021/08/22 01:12:28;;;;;;;12.60;10.93;;;;;;;12.25;73.82;97545.94;1636064;85;25682;-87
2021/08/22 01:15:00;;;;;;;13.20;11.15;;;;;;;12.26;73.86;97543.54;1651736;85;25480;-87
2021/08/22 01:17:29;;;;;;;13.45;11.00;;;;;;;12.28;73.90;97543.33;1648346;83;27398;-86
2021/08/22 01:20:33;;;;;;;14.58;10.50;;;;;;;12.28;73.94;97540.61;1685515;83;25529;-86
2021/08/22 01:23:08;;;;;;;12.88;10.80;;;;;;;12.27;74.01;97543.02;1711964;83;25659;-87
2021/08/22 01:25:37;;;;;;;18.07;11.95;;;;;;;12.26;74.06;97540.83;1686407;83;26144;-87
2021/08/22 01:28:07;;;;;;;14.25;11.03;;;;;;;12.26;74.04;97536.77;1686297;83;25601;-87
2021/08/22 01:30:42;;;;;;;16.85;11.45;;;;;;;12.27;74.13;97540.31;1686433;83;27851;-87
2021/08/22 01:33:15;;;;;;;15.83;12.53;;;;;;;12.14;74.21;97514.69;1673802;84;25506;-87
2021/08/22 01:35:46;;;;;;;14.05;11.73;;;;;;;12.24;74.23;97538.03;1673634;84;25528;-86
2021/08/22 01:38:15;;;;;;;15.03;11.40;;;;;;;12.24;74.30;97538.03;1650735;84;25763;-87
2021/08/22 01:40:45;;;;;;;14.05;11.65;;;;;;;12.24;74.39;97537.51;1666228;85;25583;-87
2021/08/22 01:43:14;;;;;;;15.45;10.82;;;;;;;12.25;74.47;97535.11;1662313;84;27373;-86
2021/08/22 01:45:43;;;;;;;15.50;11.63;;;;;;;12.26;74.55;97533.23;1673913;84;25243;-87
2021/08/22 01:48:13;;;;;;;13.83;10.50;;;;;;;12.26;74.48;97538.65;1673440;84;25217;-86
2021/08/22 01:50:42;;;;;;;12.50;10.43;;;;;;;12.26;74.46;97538.13;1679937;84;25600;-87
2021/08/22 01:53:09;;;;;;;12.88;10.63;;;;;;;12.27;74.51;97540.31;1654225;85;25502;-87
2021/08/22 01:55:36;;;;;;;12.15;10.68;;;;;;;12.26;74.52;97549.47;1644981;85;27822;-86
2021/08/22 01:58:07;;;;;;;13.35;11.03;;;;;;;12.26;74.65;97546.77;1673692;85;25937;-86
2021/08/22 02:00:34;;;;;;;15.13;10.60;;;;;;;12.28;74.64;97537.91;1673350;84;25573;-86
2021/08/22 02:03:16;;;;;;;11.85;10.65;;;;;;;12.28;74.71;97536.55;1654239;85;25613;-86
2021/08/22 02:05:45;;;;;;;14.60;10.40;;;;;;;12.28;74.76;97529.79;1664435;84;25475;-86
2021/08/22 02:08:18;;;;;;;12.20;10.45;;;;;;;12.30;74.82;97533.11;1673880;84;27886;-86
2021/08/22 02:10:55;;;;;;;12.85;10.85;;;;;;;12.17;74.81;97508.32;1679562;84;25597;-85
2021/08/22 02:13:27;;;;;;;10.88;9.73;;;;;;;12.31;74.85;97528.53;1672265;85;25505;-86
2021/08/22 02:15:56;;;;;;;13.40;11.33;;;;;;;12.29;74.87;97527.39;1673541;84;26218;-86
2021/08/22 02:18:24;;;;;;;13.58;10.48;;;;;;;12.25;74.87;97526.16;1684173;84;25241;-86
2021/08/22 02:20:52;;;;;;;15.10;10.40;;;;;;;12.23;74.89;97526.38;1699414;82;27434;-87
2021/08/22 02:23:22;;;;;;;14.53;10.98;;;;;;;12.25;74.91;97535.63;1695869;84;25505;-86
2021/08/22 02:25:51;;;;;;;14.73;10.63;;;;;;;12.24;74.96;97529.91;1699984;82;25979;-85
2021/08/22 02:28:18;;;;;;;14.07;10.80;;;;;;;12.22;75.00;97532.83;1700713;82;25695;-87
2021/08/22 02:30:44;;;;;;;13.88;11.03;;;;;;;12.22;75.03;97526.59;1700813;83;25569;-87
2021/08/22 02:33:11;;;;;;;14.33;11.38;;;;;;;12.23;75.04;97528.25;1706518;83;27357;-87
2021/08/22 02:35:39;;;;;;;13.65;10.90;;;;;;;12.23;75.08;97528.25;1670407;85;25524;-87
2021/08/22 02:38:06;;;;;;;14.13;10.63;;;;;;;12.24;75.08;97525.85;1687661;84;25464;-88
2021/08/22 02:40:33;;;;;;;13.40;10.93;;;;;;;12.24;75.15;97528.03;1688081;85;25681;-87
2021/08/22 02:43:00;;;;;;;12.05;10.63;;;;;;;12.24;75.21;97519.09;1686188;83;25500;-87
2021/08/22 02:45:28;;;;;;;12.55;10.20;;;;;;;12.23;75.17;97522.84;1662568;86;25927;-88
2021/08/22 02:47:59;;;;;;;11.88;10.65;;;;;;;12.21;75.18;97523.58;1662091;83;25609;-87
2021/08/22 02:50:31;;;;;;;13.20;11.18;;;;;;;12.21;75.19;97516.81;1667737;84;25417;-87
2021/08/22 02:53:01;;;;;;;13.40;9.95;;;;;;;12.19;75.19;97515.70;1685929;83;25829;-88
2021/08/22 02:55:26;;;;;;;14.15;11.03;;;;;;;12.18;75.18;97515.92;1699844;82;25431;-87
2021/08/22 02:57:53;;;;;;;13.03;9.83;;;;;;;12.15;75.14;97517.70;1686324;84;27514;-88
2021/08/22 03:00:23;;;;;;;12.47;10.98;;;;;;;12.09;75.12;97515.85;1710781;82;25492;-87
2021/08/22 03:02:50;;;;;;;19.98;10.63;;;;;;;12.07;75.26;97523.38;1711980;82;25228;-87
2021/08/22 03:05:17;;;;;;;12.68;10.35;;;;;;;12.05;75.30;97523.59;1707512;82;25655;-88
2021/08/22 03:07:43;;;;;;;10.80;9.75;;;;;;;12.05;75.30;97518.70;1700481;84;25608;-87
2021/08/22 03:10:11;;;;;;;12.63;10.25;;;;;;;12.04;75.31;97511.64;1695775;84;27346;-87
2021/08/22 03:12:40;;;;;;;13.08;10.05;;;;;;;12.04;75.34;97518.41;1694007;83;25673;-87
2021/08/22 03:15:09;;;;;;;12.13;10.72;;;;;;;12.03;75.27;97517.57;1665819;82;25485;-87
2021/08/22 03:17:36;;;;;;;13.58;10.63;;;;;;;12.04;75.29;97511.64;1684917;83;25680;-87
2021/08/22 03:20:06;;;;;;;10.85;9.38;;;;;;;12.03;75.34;97517.57;1659509;85;25466;-87
2021/08/22 03:22:36;;;;;;;13.03;9.95;;;;;;;12.00;75.31;97511.75;1670104;85;27386;-88
2021/08/22 03:25:06;;;;;;;13.05;10.35;;;;;;;11.96;75.28;97514.05;1668366;85;25524;-87
2021/08/22 03:27:33;;;;;;;13.20;10.03;;;;;;;11.94;75.37;97511.29;1649935;86;25636;-87
2021/08/22 03:30:00;;;;;;;12.07;10.70;;;;;;;11.92;75.47;97514.20;1652237;84;26009;-87
2021/08/22 03:32:27;;;;;;;11.85;10.08;;;;;;;11.92;75.46;97518.27;1646432;85;25260;-88
2021/08/22 03:35:00;;;;;;;11.55;9.75;;;;;;;11.93;75.45;97512.33;1661949;84;27320;-86
2021/08/22 03:37:23;;;;;;;10.85;9.75;;;;;;;11.89;75.44;97515.46;1684419;83;25583;-87
2021/08/22 03:39:52;;;;;;;14.87;9.25;;;;;;;11.74;75.41;97493.25;1679296;84;25639;-88
2021/08/22 03:42:19;;;;;;;10.60;8.83;;;;;;;11.87;75.43;97512.66;1668038;84;25665;-87
2021/08/22 03:44:47;;;;;;;10.85;9.73;;;;;;;11.84;75.41;97515.80;1660708;85;25983;-87
2021/08/22 03:47:16;;;;;;;11.00;9.73;;;;;;;11.81;75.42;97521.13;1640640;87;28072;-87
2021/08/22 03:49:43;;;;;;;10.63;9.45;;;;;;;11.80;75.51;97520.83;1644394;86;25531;-87
2021/08/22 03:52:10;;;;;;;12.78;10.48;;;;;;;11.79;75.62;97511.05;1646763;85;25550;-88
2021/08/22 03:54:39;;;;;;;14.20;10.20;;;;;;;11.80;75.63;97515.42;1624848;87;25545;-87
2021/08/22 03:57:05;;;;;;;13.58;10.63;;;;;;;11.82;75.62;97514.69;1620259;87;25577;-87
2021/08/22 03:59:35;;;;;;;11.63;10.43;;;;;;;11.84;75.71;97514.44;1640000;86;27858;-88
2021/08/22 04:02:07;;;;;;;14.75;10.75;;;;;;;11.84;75.73;97504.45;1622941;87;25748;-88
2021/08/22 04:04:33;;;;;;;11.73;10.35;;;;;;;11.85;75.83;97508.81;1639704;86;25578;-87
2021/08/22 04:07:04;;;;;;;15.65;11.00;;;;;;;11.85;75.86;97504.76;1647509;85;25994;-87
2021/08/22 04:09:30;;;;;;;15.03;10.78;;;;;;;11.88;75.95;97509.75;1644237;87;25630;-87
2021/08/22 04:12:01;;;;;;;13.05;10.75;;;;;;;11.85;75.95;97503.41;1635459;87;27911;-88
2021/08/22 04:14:28;;;;;;;13.85;10.55;;;;;;;11.85;76.02;97512.05;1616470;88;25774;-87
2021/08/22 04:16:57;;;;;;;13.43;10.85;;;;;;;11.88;76.04;97516.50;1618770;88;25637;-88
2021/08/22 04:19:23;;;;;;;13.28;10.08;;;;;;;11.88;76.02;97517.86;1598248;88;26056;-88
2021/08/22 04:21:51;;;;;;;13.90;10.85;;;;;;;11.88;75.89;97517.03;1616108;88;25576;-88
2021/08/22 04:24:19;;;;;;;13.90;11.60;;;;;;;11.87;75.83;97509.95;1637663;86;25841;-87
2021/08/22 04:26:48;;;;;;;14.18;11.43;;;;;;;11.84;75.84;97513.92;1665792;85;25447;-88
2021/08/22 04:29:14;;;;;;;23.02;17.30;;;;;;;11.85;75.88;97518.28;1667875;86;25620;-88
2021/08/22 04:31:43;;;;;;;30.12;22.40;;;;;;;11.86;75.97;97523.17;1648577;86;25559;-88
2021/08/22 04:34:10;;;;;;;32.38;22.35;;;;;;;11.87;75.99;97510.78;1668145;85;25213;-88
2021/08/22 04:36:40;;;;;;;27.20;19.85;;;;;;;11.74;76.04;97495.95;1660118;85;27388;-89
2021/08/22 04:39:08;;;;;;;29.92;20.60;;;;;;;11.76;76.06;97489.84;1663837;85;25709;-87
2021/08/22 04:41:37;;;;;;;31.12;20.92;;;;;;;11.91;76.10;97512.55;1667844;85;25525;-87
2021/08/22 04:44:05;;;;;;;29.72;21.95;;;;;;;11.95;76.16;97514.30;1668117;84;25725;-88
2021/08/22 04:46:32;;;;;;;26.15;20.40;;;;;;;11.97;76.18;97516.23;1666748;86;25288;-88
2021/08/22 04:48:59;;;;;;;23.02;16.82;;;;;;;11.99;76.22;97514.98;1670794;85;27361;-87
2021/08/22 04:51:25;;;;;;;27.27;18.67;;;;;;;12.00;76.27;97511.75;1674193;85;25694;-87
2021/08/22 04:54:00;;;;;;;26.23;20.55;;;;;;;12.04;76.29;97514.34;1660782;85;25585;-87
2021/08/22 04:56:23;;;;;;;25.65;19.65;;;;;;;12.04;76.33;97511.11;1671740;85;25799;-88
2021/08/22 04:58:50;;;;;;;23.90;17.55;;;;;;;12.09;76.34;97511.80;1673733;85;25452;-88
2021/08/22 05:01:17;;;;;;;22.37;18.12;;;;;;;12.14;76.36;97510.63;1674475;83;27406;-88
2021/08/22 05:03:45;;;;;;;27.70;18.75;;;;;;;12.18;76.33;97510.51;1637711;85;25482;-88
2021/08/22 05:06:13;;;;;;;22.20;18.55;;;;;;;12.21;76.33;97508.69;1601035;88;25584;-88
2021/08/22 05:08:40;;;;;;;28.87;19.92;;;;;;;12.23;76.40;97508.78;1634901;87;25839;-88
2021/08/22 05:11:08;;;;;;;24.87;20.45;;;;;;;12.27;76.42;97510.53;1626109;87;25605;-88
2021/08/22 05:13:37;;;;;;;25.12;18.42;;;;;;;12.32;76.41;97509.89;1645521;85;27894;-89
2021/08/22 05:16:07;;;;;;;21.45;17.95;;;;;;;12.36;76.49;97511.09;1616808;86;25214;-88
2021/08/22 05:18:37;;;;;;;20.30;16.05;;;;;;;12.40;76.53;97513.67;1665970;85;25616;-88
2021/08/22 05:21:10;;;;;;;18.70;14.43;;;;;;;12.33;76.53;97488.52;1698219;83;25719;-88
2021/08/22 05:23:36;;;;;;;17.10;14.55;;;;;;;12.52;76.60;97504.61;1687916;84;25186;-89
2021/08/22 05:26:08;;;;;;;22.85;17.52;;;;;;;12.58;76.59;97506.42;1693913;84;26652;-87
2021/08/22 05:28:33;;;;;;;19.42;15.80;;;;;;;12.66;76.78;97512.10;1678097;84;25641;-87
2021/08/22 05:31:00;;;;;;;18.52;15.68;;;;;;;12.71;76.86;97508.70;1668517;83;25569;-87
2021/08/22 05:33:27;;;;;;;21.23;14.53;;;;;;;12.76;76.87;97508.36;1691413;84;25690;-89
2021/08/22 05:35:53;;;;;;;15.08;13.48;;;;;;;12.81;76.97;97509.03;1691297;83;25291;-88
2021/08/22 05:38:22;;;;;;;17.73;13.40;;;;;;;12.87;76.95;97510.33;1668466;84;26082;-89
2021/08/22 05:40:48;;;;;;;15.40;13.38;;;;;;;12.93;76.97;97505.36;1690901;83;25821;-88
2021/08/22 05:43:17;;;;;;;18.20;13.58;;;;;;;13.01;76.99;97511.03;1689910;83;25410;-87
2021/08/22 05:45:44;;;;;;;16.87;12.95;;;;;;;13.07;77.13;97500.64;1689264;84;25677;-88
2021/08/22 05:48:10;;;;;;;15.35;12.30;;;;;;;13.12;77.13;97500.80;1696582;83;25568;-88
2021/08/22 05:50:37;;;;;;;17.05;14.05;;;;;;;13.20;77.11;97496.98;1690494;83;27760;-88
2021/08/22 05:53:04;;;;;;;18.90;14.47;;;;;;;13.27;77.04;97482.85;1690684;84;25502;-88
2021/08/22 05:55:31;;;;;;;15.90;13.50;;;;;;;13.36;77.11;97486.08;1691073;83;25474;-88
2021/08/22 05:58:01;;;;;;;15.05;13.38;;;;;;;13.43;77.15;97486.28;1691185;83;26307;-88
2021/08/22 06:00:28;;;;;;;14.75;13.10;;;;;;;13.51;77.12;97486.00;1690574;83;25931;-88
2021/08/22 06:02:54;;;;;;;14.23;12.35;;;;;;;13.59;77.15;97483.48;1691033;84;27368;-87
2021/08/22 06:05:21;;;;;;;14.70;13.08;;;;;;;13.66;77.11;97488.28;1690759;83;25583;-88
2021/08/22 06:07:50;;;;;;;15.18;13.58;;;;;;;13.75;77.12;97495.08;1690993;83;25454;-88
2021/08/22 06:10:18;;;;;;;14.68;13.08;;;;;;;13.85;77.17;97487.20;1651163;83;25562;-88
2021/08/22 06:12:46;;;;;;;17.25;13.95;;;;;;;13.96;77.26;97483.70;1691731;83;25806;-89
2021/08/22 06:15:14;;;;;;;20.92;13.32;;;;;;;14.08;77.30;97489.70;1686841;84;26167;-88
2021/08/22 06:17:44;;;;;;;15.85;13.60;;;;;;;14.19;77.26;97484.83;1690730;83;25554;-89
2021/08/22 06:20:12;;;;;;;15.75;13.18;;;;;;;14.32;77.25;97487.34;1690645;83;25205;-88
2021/08/22 06:22:39;;;;;;;15.90;13.83;;;;;;;14.43;77.23;97478.95;1690970;83;26099;-88
2021/08/22 06:25:11;;;;;;;15.72;13.48;;;;;;;14.54;77.26;97478.97;1691190;83;25489;-88
2021/08/22 06:27:37;;;;;;;15.05;13.05;;;;;;;14.67;77.29;97481.98;1689966;83;27559;-88
2021/08/22 06:30:06;;;;;;;14.83;13.30;;;;;;;14.78;77.06;97475.20;1690250;84;25547;-87
2021/08/22 06:32:34;;;;;;;16.27;13.30;;;;;;;14.88;76.87;97474.59;1690639;83;25537;-88
2021/08/22 06:35:01;;;;;;;15.28;13.72;;;;;;;14.98;76.84;97472.64;1695095;83;26152;-86
2021/08/22 06:37:30;;;;;;;17.60;13.62;;;;;;;15.08;76.71;97471.53;1673024;84;25537;-86
2021/08/22 06:39:58;;;;;;;15.65;13.62;;;;;;;15.19;76.57;97473.41;1691382;83;27399;-85
2021/08/22 06:42:25;;;;;;;19.90;14.53;;;;;;;15.32;76.56;97474.50;1690964;83;25481;-89
2021/08/22 06:44:53;;;;;;;18.75;13.98;;;;;;;15.43;76.42;97467.38;1705770;83;25584;-88
2021/08/22 06:47:24;;;;;;;15.28;13.50;;;;;;;15.55;76.37;97467.38;1689006;84;25668;-88
2021/08/22 06:49:50;;;;;;;17.73;14.03;;;;;;;15.64;76.21;97468.64;1696567;83;25382;-86
2021/08/22 06:52:20;;;;;;;18.00;13.98;;;;;;;15.71;76.24;97468.78;1670914;84;26352;-87
2021/08/22 06:54:47;;;;;;;18.67;13.50;;;;;;;15.80;76.29;97470.61;1662377;84;25265;-87
2021/08/22 06:57:14;;;;;;;15.32;12.93;;;;;;;15.90;76.25;97470.80;1680051;83;25221;-87
2021/08/22 06:59:43;;;;;;;16.90;12.47;;;;;;;16.00;76.11;97465.53;1691973;83;26061;-85
2021/08/22 07:02:12;;;;;;;15.55;13.28;;;;;;;16.09;75.90;97455.89;1690838;83;25555;-88
2021/08/22 07:04:40;;;;;;;14.73;13.10;;;;;;;16.19;75.89;97462.05;1691370;83;27885;-87
2021/08/22 07:07:13;;;;;;;16.12;13.40;;;;;;;16.30;75.91;97459.78;1706040;83;25568;-88
2021/08/22 07:09:40;;;;;;;14.38;12.75;;;;;;;16.29;75.86;97438.27;1657253;84;25612;-88
2021/08/22 07:12:14;;;;;;;16.40;12.88;;;;;;;16.54;75.83;97461.84;1669441;83;26042;-88
2021/08/22 07:14:42;;;;;;;15.13;12.40;;;;;;;16.67;75.88;97457.43;1664258;84;25539;-88
2021/08/22 07:17:15;;;;;;;15.03;13.40;;;;;;;16.80;75.66;97450.81;1706356;83;26998;-87
2021/08/22 07:19:42;;;;;;;14.23;12.85;;;;;;;16.92;75.49;97452.36;1688339;83;25522;-89
2021/08/22 07:22:19;;;;;;;16.65;13.10;;;;;;;17.04;75.24;97447.34;1691058;84;26039;-87
2021/08/22 07:24:46;;;;;;;13.18;11.78;;;;;;;17.17;75.07;97448.34;1690775;82;26190;-86
2021/08/22 07:27:13;;;;;;;14.47;12.25;;;;;;;17.31;74.79;97444.17;1698917;83;25544;-87
2021/08/22 07:29:43;;;;;;;13.90;11.40;;;;;;;17.35;74.62;97427.59;1711525;83;27354;-86
2021/08/22 07:32:12;;;;;;;13.85;10.72;;;;;;;17.63;74.36;97450.59;1688467;84;32344;-87
2021/08/22 07:34:39;;;;;;;12.95;11.55;;;;;;;17.79;74.38;97445.32;1706472;83;25442;-86
2021/08/22 07:37:07;;;;;;;14.65;11.55;;;;;;;17.95;74.17;97449.34;1675543;84;25633;-87
2021/08/22 07:39:34;;;;;;;14.20;11.00;;;;;;;18.12;73.87;97445.11;1687208;83;25541;-88
2021/08/22 07:42:04;;;;;;;14.47;10.68;;;;;;;18.36;73.54;97441.50;1691033;83;27802;-85
2021/08/22 07:44:31;;;;;;;10.78;9.68;;;;;;;18.67;73.53;97441.26;1711466;83;25351;-86
2021/08/22 07:46:57;;;;;;;14.85;9.58;;;;;;;18.94;73.30;97422.86;1688690;83;25485;-88
2021/08/22 07:49:24;;;;;;;12.73;9.70;;;;;;;19.44;72.48;97436.53;1689184;83;25713;-86
2021/08/22 07:51:51;;;;;;;10.98;9.43;;;;;;;19.81;71.96;97443.79;1667947;84;25478;-88
2021/08/22 07:54:20;;;;;;;13.13;11.75;;;;;;;20.19;71.29;97449.36;1690323;83;26370;-87
2021/08/22 07:56:47;;;;;;;13.22;11.83;;;;;;;20.59;70.93;97449.44;1711109;83;25499;-87
2021/08/22 07:59:14;;;;;;;14.70;11.85;;;;;;;20.82;69.87;97424.73;1687739;84;25613;-87
2021/08/22 08:01:40;;;;;;;15.63;11.80;;;;;;;21.34;69.38;97438.66;1690864;84;26194;-88
2021/08/22 08:04:07;;;;;;;15.85;13.15;;;;;;;21.63;69.16;97420.95;1697094;83;25513;-88
2021/08/22 08:06:38;;;;;;;13.32;10.48;;;;;;;22.18;68.16;97450.09;1658497;84;26081;-89
2021/08/22 08:09:07;;;;;;;12.43;9.97;;;;;;;22.44;67.08;97446.63;1678787;83;26012;-88
2021/08/22 08:11:35;;;;;;;11.40;9.48;;;;;;;22.76;66.44;97444.73;1660983;85;37737;-87
2021/08/22 08:14:07;;;;;;;10.32;9.18;;;;;;;23.08;66.05;97440.84;1679743;83;25987;-87
2021/08/22 08:16:35;;;;;;;9.35;8.45;;;;;;;23.34;65.14;97439.46;1680584;83;25496;-87
2021/08/22 08:19:05;;;;;;;11.78;9.08;;;;;;;23.55;64.98;97444.20;1681229;83;27410;-87
2021/08/22 08:21:32;;;;;;;9.85;8.73;;;;;;;23.87;64.77;97442.72;1680616;85;25479;-85
2021/08/22 08:24:00;;;;;;;8.58;7.78;;;;;;;24.03;64.03;97427.03;1662544;84;25608;-89
2021/08/22 08:26:27;;;;;;;9.28;8.38;;;;;;;24.41;63.56;97438.92;1691401;83;25697;-88
2021/08/22 08:28:56;;;;;;;11.33;8.03;;;;;;;24.63;63.07;97439.70;1681045;84;25169;-89
2021/08/22 08:31:22;;;;;;;10.00;8.00;;;;;;;24.93;62.64;97437.55;1661092;85;27424;-88
2021/08/22 08:33:50;;;;;;;8.35;7.58;;;;;;;25.22;62.05;97431.23;1681223;84;25461;-92
2021/08/22 08:36:17;;;;;;;7.90;7.20;;;;;;;25.52;61.37;97428.98;1681272;84;25525;-87
2021/08/22 08:38:44;;;;;;;8.83;7.75;;;;;;;25.78;60.61;97428.19;1681656;84;25807;-85
2021/08/22 08:41:14;;;;;;;9.03;7.37;;;;;;;26.00;60.03;97424.66;1681481;84;25494;-91
2021/08/22 08:43:42;;;;;;;8.63;7.83;;;;;;;26.24;59.75;97423.58;1681879;85;27943;-88
2021/08/22 08:46:44;;;;;;;7.55;6.85;;;;;;;26.50;58.75;97427.42;1681296;84;25521;-87
2021/08/22 08:49:29;;;;;;;7.37;6.65;;;;;;;26.77;58.18;97420.39;1657032;85;25438;-88
2021/08/22 08:52:13;;;;;;;7.97;7.17;;;;;;;27.03;57.80;97423.92;1665916;85;26193;-89
2021/08/22 08:54:48;;;;;;;7.42;6.40;;;;;;;27.27;56.75;97416.06;1656250;85;25658;-88
2021/08/22 08:57:15;;;;;;;6.75;6.15;;;;;;;27.41;56.48;97413.19;1657530;85;27370;-89
2021/08/22 08:59:42;;;;;;;7.70;6.95;;;;;;;27.65;56.07;97415.02;1663725;85;25506;-88
2021/08/22 09:02:09;;;;;;;7.90;7.15;;;;;;;27.83;55.40;97413.92;1661104;85;25540;-88
2021/08/22 09:04:47;;;;;;;7.17;6.50;;;;;;;27.96;54.92;97410.77;1663310;85;26094;-88
2021/08/22 09:07:49;;;;;;;7.45;6.10;;;;;;;28.06;54.66;97413.22;1616854;86;26042;-88
2021/08/22 09:11:06;;;;;;;9.80;5.55;;;;;;;28.15;54.32;97410.45;1663388;84;27487;-88
2021/08/22 09:14:11;;;;;;;6.47;5.30;;;;;;;28.28;53.05;97413.11;1664790;84;25504;-87
2021/08/22 09:17:35;;;;;;;5.78;5.28;;;;;;;28.35;52.77;97411.82;1655002;84;25371;-88
2021/08/22 09:20:30;;;;;;;8.00;5.03;;;;;;;28.46;51.83;97404.80;1675973;84;26302;-89
2021/08/22 09:23:54;;;;;;;6.90;6.20;;;;;;;28.56;51.17;97407.23;1646877;84;25522;-90
2021/08/22 09:26:53;;;;;;;5.80;5.20;;;;;;;28.49;50.91;97404.15;1668173;83;27377;-88
2021/08/22 09:30:01;;;;;;;6.50;5.90;;;;;;;28.51;51.22;97403.23;1691644;83;25607;-86
2021/08/22 09:33:24;;;;;;;5.92;5.42;;;;;;;28.44;51.05;97395.97;1692524;83;25502;-88
2021/08/22 09:36:45;;;;;;;7.12;5.00;;;;;;;28.45;50.41;97401.20;1698461;83;25768;-92
2021/08/22 09:39:54;;;;;;;6.65;4.92;;;;;;;28.38;49.47;97397.30;1691450;83;25488;-89
2021/08/22 09:43:17;;;;;;;5.92;5.40;;;;;;;28.51;49.23;97396.28;1589824;88;27397;-87
2021/08/22 09:46:39;;;;;;;6.33;5.72;;;;;;;28.65;49.09;97396.92;1620760;87;25550;-89
2021/08/22 09:50:07;;;;;;;4.97;4.47;;;;;;;28.75;48.46;97404.09;1620814;87;25677;-89
2021/08/22 09:53:28;;;;;;;6.37;5.75;;;;;;;28.56;47.41;97398.91;1634522;87;25485;-85
2021/08/22 09:56:44;;;;;;;5.33;4.83;;;;;;;28.50;48.24;97400.23;1629198;87;26394;-88
2021/08/22 09:59:49;;;;;;;5.15;4.33;;;;;;;28.28;48.42;97393.68;1572838;90;27443;-89
2021/08/22 10:02:43;;;;;;;4.78;4.37;;;;;;;27.98;48.11;97396.00;1541281;92;25518;-87
2021/08/22 10:05:43;;;;;;;5.28;4.78;;;;;;;27.66;48.22;97392.24;1521346;92;25902;-88
2021/08/22 10:08:54;;;;;;;4.47;4.08;;;;;;;27.25;48.91;97393.39;1502762;94;26413;-88
2021/08/22 10:12:00;;;;;;;5.40;4.17;;;;;;;26.93;50.10;97393.72;1554086;92;25633;-88
2021/08/22 10:14:29;;;;;;;5.10;4.60;;;;;;;26.59;50.39;97388.16;1528317;93;27603;-84
2021/08/22 10:17:05;;;;;;;5.17;4.67;;;;;;;26.30;51.31;97385.03;1539677;91;25665;-87
2021/08/22 10:19:32;;;;;;;5.20;4.70;;;;;;;26.05;51.95;97365.66;1585346;89;25716;-88
2021/08/22 10:22:22;;;;;;;6.28;4.87;;;;;;;26.00;51.71;97380.41;1569437;89;26204;-87
2021/08/22 10:25:01;;;;;;;4.83;4.20;;;;;;;26.02;52.22;97371.81;1565380;91;26283;-88
2021/08/22 10:27:45;;;;;;;5.85;3.70;;;;;;;26.03;51.28;97374.27;1567144;91;28292;-87
2021/08/22 10:30:18;;;;;;;3.92;3.62;;;;;;;26.00;50.20;97367.97;1615071;88;25584;-87
2021/08/22 10:33:05;;;;;;;5.00;4.33;;;;;;;26.15;50.15;97370.39;1621327;86;25543;-88
2021/08/22 10:35:33;;;;;;;7.87;4.47;;;;;;;26.40;50.06;97368.17;1645765;85;26304;-88
2021/08/22 10:38:21;;;;;;;4.92;4.00;;;;;;;26.44;49.08;97370.58;1636075;86;25567;-88
2021/08/22 10:40:52;;;;;;;5.22;3.95;;;;;;;26.26;48.43;97379.27;1652501;85;26059;-88
2021/08/22 10:43:27;;;;;;;4.40;4.00;;;;;;;26.13;48.71;97375.41;1656292;85;25525;-88
2021/08/22 10:45:56;;;;;;;4.70;4.15;;;;;;;26.06;49.55;97373.66;1659201;85;25531;-88
2021/08/22 10:48:32;;;;;;;5.45;4.22;;;;;;;25.99;50.16;97380.72;1656756;85;26181;-88
2021/08/22 10:51:04;;;;;;;5.62;4.53;;;;;;;25.99;49.57;97376.02;1644168;86;25613;-87
2021/08/22 10:53:43;;;;;;;4.50;4.10;;;;;;;26.01;48.70;97377.91;1659638;83;27357;-88
2021/08/22 10:56:30;;;;;;;6.17;4.60;;;;;;;25.94;49.69;97374.77;1660215;85;25532;-91
2021/08/22 10:59:06;;;;;;;4.80;4.10;;;;;;;25.87;49.57;97376.30;1661768;85;25606;-87
2021/08/22 11:01:37;;;;;;;4.10;3.77;;;;;;;25.94;49.73;97378.91;1659514;83;26303;-88
2021/08/22 11:04:16;;;;;;;5.72;4.20;;;;;;;26.01;49.44;97373.76;1637821;85;25654;-87
2021/08/22 11:07:02;;;;;;;4.53;4.12;;;;;;;25.97;49.76;97369.97;1666115;85;26893;-93
2021/08/22 11:09:45;;;;;;;3.90;3.50;;;;;;;26.05;49.89;97370.63;1640200;85;25533;-87
2021/08/22 11:12:29;;;;;;;5.83;4.25;;;;;;;26.20;49.84;97371.63;1629698;86;25580;-88
2021/08/22 11:15:04;;;;;;;3.70;3.45;;;;;;;26.30;49.47;97370.63;1662601;85;25788;-86
2021/08/22 11:17:33;;;;;;;4.65;4.25;;;;;;;26.27;48.78;97370.39;1648590;84;25419;-89
2021/08/22 11:20:12;;;;;;;5.30;3.95;;;;;;;26.22;48.38;97367.73;1648369;86;27369;-88
2021/08/22 11:22:39;;;;;;;4.40;4.00;;;;;;;26.10;48.72;97364.96;1648646;85;25448;-86
2021/08/22 11:25:07;;;;;;;4.47;3.90;;;;;;;25.82;49.08;97363.42;1639792;86;25956;-87
2021/08/22 11:27:35;;;;;;;4.12;3.72;;;;;;;25.71;49.37;97362.83;1623967;87;25827;-87
2021/08/22 11:30:09;;;;;;;5.70;3.62;;;;;;;25.75;49.44;97367.98;1642432;86;25504;-86
2021/08/22 11:32:38;;;;;;;5.78;3.55;;;;;;;25.73;49.33;97364.70;1639273;87;27593;-86
2021/08/22 11:35:24;;;;;;;4.28;3.87;;;;;;;25.66;49.79;97368.46;1639673;86;26166;-86
2021/08/22 11:37:52;;;;;;;4.53;4.12;;;;;;;25.67;50.14;97365.13;1627578;87;25596;-86
2021/08/22 11:40:23;;;;;;;6.12;3.65;;;;;;;25.58;49.80;97353.97;1639630;86;26271;-87
2021/08/22 11:42:53;;;;;;;4.33;3.92;;;;;;;25.48;50.18;97361.88;1637866;87;25626;-86
2021/08/22 11:45:23;;;;;;;3.87;3.47;;;;;;;25.43;50.21;97356.48;1641798;87;27430;-87
2021/08/22 11:47:52;;;;;;;3.98;3.67;;;;;;;25.39;50.75;97365.13;1600255;87;25824;-87